Flight Track Log - Related Links

Times and Time Zones

All times are in EDT time to prevent confusion due to time zone crossing. See the AWE1940 flight status page for this flight to view local times or setup timezone preferences in your user account.

Time Position Orientation Groundspeed Altitude Reporting Facility
EDT Latitude Longitude Course Direction KTS MPH feet Rate Location/Type
Fri 10:31:11 PM 35.2389 -80.9414 21° North 157 181 1,800  Level Atlanta Center
Fri 10:32:12 PM 35.2906 -80.9167 21° North 221 254 3,500 1,761 Climbing Atlanta Center
Fri 10:33:00 PM 35.3014 -80.8525 78° East 254 292 5,000 2,226 Climbing Atlanta Center
Fri 10:34:16 PM 35.2942 -80.7333 94° East 276 318 8,100 2,382 Climbing Atlanta Center
Fri 10:35:16 PM 35.2978 -80.6364 87° East 283 326 10,400 1,844 Climbing Atlanta Center
Fri 10:37:28 PM 35.3589 -80.3878 73° East 348 400 14,000 1,865 Climbing Washington Center
Fri 10:38:29 PM 35.3903 -80.2775 71° East 373 429 16,400 2,033 Climbing Washington Center
Fri 10:39:29 PM 35.4308 -80.1500 69° East 390 449 18,100 1,881 Climbing Washington Center
Fri 10:40:27 PM 35.4669 -80.0192 71° East 401 461 20,100 1,800 Climbing Washington Center
Fri 10:41:29 PM 35.5014 -79.8758 74° East 412 474 21,700 1,500 Climbing Washington Center
Fri 10:42:27 PM 35.5378 -79.7297 73° East 427 491 23,100 1,169 Climbing Washington Center
Fri 10:43:27 PM 35.5856 -79.5533 72° East 468 539 24,000 1,000 Climbing Washington Center
Fri 10:44:27 PM 35.6189 -79.4247 72° East 491 565 25,100 1,240 Climbing Washington Center
Fri 10:45:28 PM 35.7008 -79.2728 56° Northeast 486 559 26,500 1,525 Climbing Washington Center
Fri 10:46:29 PM 35.7886 -79.1333 52° Northeast 491 565 28,200 1,900 Climbing Washington Center
Fri 10:47:28 PM 35.8719 -78.9986 53° Northeast 498 573 30,300 1,424 Climbing Washington Center
Fri 10:48:27 PM 35.9569 -78.8636 52° Northeast 498 573 31,000 350 Climbing Washington Center
Fri 10:49:28 PM 36.0419 -78.7286 52° Northeast 498 573 31,000  Level Washington Center
Fri 10:50:27 PM 36.1269 -78.5906 53° Northeast 498 573 31,000  Level Washington Center
Fri 10:51:29 PM 36.2136 -78.4522 52° Northeast 498 573 31,000  Level Washington Center
Fri 10:52:29 PM 36.3050 -78.3008 53° Northeast 498 573 31,000  Level Washington Center
Fri 10:53:27 PM 36.3894 -78.1619 53° Northeast 498 573 31,000  Level Washington Center
Fri 10:54:27 PM 36.4714 -78.0278 53° Northeast 498 573 31,000  Level Washington Center
Fri 10:55:28 PM 36.5536 -77.8853 54° Northeast 503 579 31,000  Level Washington Center
Fri 10:56:28 PM 36.6375 -77.7456 53° Northeast 503 579 31,000  Level Washington Center
Fri 10:57:29 PM 36.7233 -77.6081 52° Northeast 503 579 31,000  Level Washington Center
Fri 10:58:27 PM 36.8050 -77.4675 54° Northeast 496 571 31,000  Level Washington Center
Fri 10:59:27 PM 36.8883 -77.3292 53° Northeast 496 571 31,000  Level Washington Center
Fri 11:00:28 PM 36.9717 -77.1908 53° Northeast 502 578 31,000  Level Washington Center
Fri 11:01:28 PM 37.0461 -77.0622 54° Northeast 497 572 31,000  Level Washington Center
Fri 11:02:29 PM 37.1272 -76.9231 54° Northeast 497 572 31,000  Level Washington Center
Fri 11:03:27 PM 37.2058 -76.7836 55° Northeast 497 572 31,000  Level Washington Center
Fri 11:04:27 PM 37.2906 -76.6439 53° Northeast 497 572 31,000  Level Washington Center
Fri 11:05:28 PM 37.3731 -76.5039 53° Northeast 497 572 31,000  Level Washington Center
Fri 11:06:28 PM 37.4553 -76.3608 54° Northeast 502 578 31,000  Level Washington Center
Fri 11:07:29 PM 37.5542 -76.2442 43° Northeast 491 565 31,000  Level Washington Center
Fri 11:08:29 PM 37.6714 -76.1506 32° Northeast 483 556 31,000  Level Washington Center
Fri 11:09:27 PM 37.7908 -76.0306 38° Northeast 488 562 31,000  Level Washington Center
Fri 11:10:29 PM 37.9017 -75.9286 36° Northeast 493 567 31,000  Level Washington Center
Fri 11:11:29 PM 38.0103 -75.8236 37° Northeast 493 567 31,000  Level Washington Center
Fri 11:12:28 PM 38.1250 -75.7211 35° Northeast 488 562 31,000  Level Washington Center
Fri 11:13:29 PM 38.2356 -75.6156 37° Northeast 488 562 31,000  Level Washington Center
Fri 11:14:27 PM 38.3358 -75.5256 35° Northeast 488 562 31,000  Level Washington Center
Fri 11:15:27 PM 38.4608 -75.4644 21° North 476 548 31,000  Level Washington Center
Fri 11:16:29 PM 38.5900 -75.4136 17° North 476 548 31,000  Level Washington Center
Fri 11:17:27 PM 38.7169 -75.3603 18° North 481 554 31,000  Level Washington Center
Fri 11:18:29 PM 38.8461 -75.3039 19° North 481 554 31,000  Level Washington Center
Fri 11:19:27 PM 38.9753 -75.2525 17° North 481 554 31,000  Level Washington Center
Fri 11:20:29 PM 39.1044 -75.1983 18° North 481 554 31,000  Level Washington Center
Fri 11:21:27 PM 39.2333 -75.1442 18° North 481 554 31,000  Level Washington Center
Fri 11:22:27 PM 39.3561 -75.0656 26° Northeast 481 554 31,000  Level Washington Center
Fri 11:23:28 PM 39.4658 -74.9492 39° Northeast 494 568 31,000  Level Washington Center
Fri 11:24:27 PM 39.5778 -74.8403 37° Northeast 494 568 31,000  Level Washington Center
Fri 11:25:28 PM 39.7000 -74.7150 38° Northeast 499 574 31,000  Level Washington Center
Fri 11:25:59 PM 39.7467 -74.6722 35° Northeast 512 589 31,000  Level New York Center
Fri 11:26:59 PM 39.8697 -74.5492 37° Northeast 508 585 31,000 -400 Level New York Center
Fri 11:27:59 PM 39.9686 -74.4489 38° Northeast 501 577 30,200 -850 Descending New York Center
Fri 11:28:59 PM 40.0881 -74.3658 28° Northeast 501 577 29,300 -600 Descending New York Center
Fri 11:29:59 PM 40.2200 -74.3428 North 470 541 29,000 -209 Descending New York Center
Fri 11:31:51 PM 40.4719 -74.2925 North 459 528 28,700 -259 Descending Boston Center
Fri 11:33:04 PM 40.5997 -74.2631 10° North 464 534 28,200 -444 Descending Boston Center
Fri 11:34:06 PM 40.7458 -74.2400 North 469 540 27,700 -500 Descending Boston Center
Fri 11:35:04 PM 40.8714 -74.2131 North 469 540 27,200 -454 Descending Boston Center
Fri 11:36:05 PM 41.0031 -74.1839 North 469 540 26,800 -443 Descending Boston Center
Fri 11:37:06 PM 41.1306 -74.1569 North 469 540 26,300 -397 Descending Boston Center
Fri 11:38:06 PM 41.2750 -74.1222 10° North 469 540 26,000 -153 Descending Boston Center
Fri 11:39:04 PM 41.4025 -74.0950 North 463 533 26,000 -150 Level Boston Center
Fri 11:40:06 PM 41.5322 -74.0678 North 463 533 25,700 -1,400 Descending Boston Center
Fri 11:41:04 PM 41.6450 -74.0431 North 468 539 23,200 -2,672 Descending Boston Center
Fri 11:42:05 PM 41.7661 -74.0183 North 451 519 20,400 -2,870 Descending Boston Center
Fri 11:42:36 PM 41.8394 -74.0061 North 435 501 18,800 -2,722 Descending Boston Center
Fri 11:43:42 PM 41.9564 -73.9756 11° North 406 467 16,000 -2,484 Descending Boston Center
Fri 11:44:44 PM 42.0672 -73.9558 North 395 455 13,500 -2,348 Descending Boston Center
Fri 11:45:37 PM 42.1633 -73.9303 11° North 377 434 11,500 -1,526 Descending Boston Center
Fri 11:46:38 PM 42.2553 -73.9128 North 329 379 10,600 -1,131 Descending Boston Center
Fri 11:47:39 PM 42.3411 -73.8950 North 274 315 9,200 -1,175 Descending Boston Center
Fri 11:48:15 PM 42.3642 -73.8844 19° North 291 335 8,700 -1,469 Descending Boston Center
Fri 11:49:17 PM 42.4519 -73.8583 12° North 271 312 6,800 -1,756 Descending Boston Center
Fri 11:50:18 PM 42.5336 -73.8347 12° North 277 319 5,100 -1,412 Descending Boston Center
Fri 11:51:16 PM 42.5881 -73.8192 12° North 272 313 4,000 -1,322 Descending Boston Center
Fri 11:52:16 PM 42.6467 -73.7922 19° North 234 269 2,500 -1,274 Descending Boston Center
Fri 11:53:42 PM 42.7089 -73.8075 350° North 125 144 900 -1,116 Descending Boston Center

Login

Don't have an account? Register now (free) for customized features, flight alerts, and more!